createdAt,value
2023-01-22T00:01:45.957Z,103207.19
2023-01-22T00:04:12.495Z,103206.31
2023-01-22T00:06:39.004Z,103208.09
2023-01-22T00:09:05.607Z,103207.22
2023-01-22T00:11:32.172Z,103212.50
2023-01-22T00:13:58.718Z,103209.84
2023-01-22T00:16:25.331Z,103208.09
2023-01-22T00:18:51.886Z,103208.97
2023-01-22T00:21:18.426Z,103208.09
2023-01-22T00:23:45.003Z,103206.31
2023-01-22T00:26:15.358Z,103213.41
2023-01-22T00:28:47.162Z,103208.97
2023-01-22T00:31:15.596Z,103207.22
2023-01-22T00:33:42.821Z,103210.75
2023-01-22T00:36:13.412Z,103208.97
2023-01-22T00:38:40.548Z,103206.34
2023-01-22T00:41:08.697Z,103211.66
2023-01-22T00:43:38.595Z,103206.34
2023-01-22T00:46:06.674Z,103201.91
2023-01-22T00:48:33.211Z,103196.63
2023-01-22T00:50:59.790Z,103193.06
2023-01-22T00:53:26.376Z,103193.06
2023-01-22T00:55:55.206Z,103193.06
2023-01-22T00:58:21.980Z,103195.72
2023-01-22T01:00:49.503Z,103185.13
2023-01-22T01:03:32.520Z,103177.16
2023-01-22T01:06:13.517Z,103183.34
2023-01-22T01:08:42.248Z,103183.34
2023-01-22T01:11:15.129Z,103186.00
2023-01-22T01:13:43.227Z,103186.00
2023-01-22T01:16:21.268Z,103174.50
2023-01-22T01:18:48.312Z,103176.28
2023-01-22T01:21:15.504Z,103174.50
2023-01-22T01:23:42.833Z,103175.41
2023-01-22T01:26:12.859Z,103183.38
2023-01-22T01:28:40.411Z,103181.59
2023-01-22T01:31:11.211Z,103180.72
2023-01-22T01:33:37.945Z,103186.00
2023-01-22T01:36:07.196Z,103179.81
2023-01-22T01:38:33.758Z,103184.25
2023-01-22T01:41:00.406Z,103177.19
2023-01-22T01:43:27.527Z,103177.19
2023-01-22T01:45:56.418Z,103165.69
2023-01-22T01:48:44.766Z,103164.81
2023-01-22T01:51:29.756Z,103155.09
2023-01-22T01:53:57.488Z,103150.66
2023-01-22T01:56:28.744Z,103150.66
2023-01-22T01:59:04.715Z,103133.88
2023-01-22T02:01:32.759Z,103140.94
2023-01-22T02:04:00.827Z,103148.88
2023-01-22T02:06:27.634Z,103145.34
2023-01-22T02:08:55.734Z,103140.91
2023-01-22T02:11:23.076Z,103140.03
2023-01-22T02:13:56.051Z,103134.72
2023-01-22T02:16:22.816Z,103145.31
2023-01-22T02:18:49.778Z,103132.03
2023-01-22T02:21:44.584Z,103132.03
2023-01-22T02:24:14.558Z,103136.41
2023-01-22T02:26:43.004Z,103139.97
2023-01-22T02:29:12.137Z,103140.84
2023-01-22T02:31:40.582Z,103143.47
2023-01-22T02:34:09.190Z,103137.28
2023-01-22T02:36:37.212Z,103140.78
2023-01-22T02:39:04.165Z,103143.41
2023-01-22T02:41:31.978Z,103146.94
2023-01-22T02:43:59.706Z,103147.81
2023-01-22T02:46:26.398Z,103144.28
2023-01-22T02:48:53.102Z,103145.16
2023-01-22T02:51:19.957Z,103147.81
2023-01-22T02:53:48.943Z,103148.69
2023-01-22T02:56:15.528Z,103153.13
2023-01-22T02:58:42.124Z,103144.25
2023-01-22T03:01:18.993Z,103146.91
2023-01-22T03:04:01.824Z,103157.53
2023-01-22T03:06:29.817Z,103152.22
2023-01-22T03:09:00.573Z,103154.88
2023-01-22T03:11:29.623Z,103147.81
2023-01-22T03:14:15.905Z,103144.25
2023-01-22T03:17:02.025Z,103132.75
2023-01-22T03:19:48.259Z,103132.75
2023-01-22T03:22:19.540Z,103131.88
2023-01-22T03:24:53.580Z,103132.75
2023-01-22T03:27:25.408Z,103128.34
2023-01-22T03:29:52.982Z,103123.91
2023-01-22T03:32:20.898Z,103122.16
2023-01-22T03:34:47.690Z,103124.81
2023-01-22T03:37:15.489Z,103115.06
2023-01-22T03:39:44.448Z,103120.38
2023-01-22T03:42:17.782Z,103108.84
2023-01-22T03:44:44.920Z,103107.09
2023-01-22T03:47:11.555Z,103107.09
2023-01-22T03:49:38.157Z,103105.31
2023-01-22T03:52:05.642Z,103099.13
2023-01-22T03:54:32.246Z,103104.44
2023-01-22T03:57:02.056Z,103103.56
2023-01-22T03:59:31.822Z,103104.44
2023-01-22T04:01:58.699Z,103107.13
2023-01-22T04:04:25.435Z,103105.34
2023-01-22T04:06:52.149Z,103108.91
2023-01-22T04:09:18.985Z,103114.22
2023-01-22T04:11:47.090Z,103110.69
2023-01-22T04:14:15.428Z,103106.25
2023-01-22T04:16:54.117Z,103108.91
2023-01-22T04:19:29.736Z,103114.22
2023-01-22T04:22:16.553Z,103107.13
2023-01-22T04:24:44.864Z,103102.69
2023-01-22T04:27:11.477Z,103103.56
2023-01-22T04:29:38.099Z,103101.78
2023-01-22T04:32:07.241Z,103099.13
2023-01-22T04:35:00.022Z,103103.53
2023-01-22T04:37:36.924Z,103100.84
2023-01-22T04:40:05.635Z,103101.72
2023-01-22T04:42:35.104Z,103103.47
2023-01-22T04:45:02.090Z,103101.66
2023-01-22T04:47:31.238Z,103096.31
2023-01-22T04:49:57.787Z,103097.22
2023-01-22T04:52:24.408Z,103106.94
2023-01-22T04:54:52.037Z,103097.16
2023-01-22T04:57:18.900Z,103095.38
2023-01-22T04:59:46.596Z,103091.84
2023-01-22T05:02:13.257Z,103090.94
2023-01-22T05:04:41.282Z,103090.91
2023-01-22T05:07:07.818Z,103098.00
2023-01-22T05:09:34.555Z,103097.97
2023-01-22T05:12:01.983Z,103091.78
2023-01-22T05:14:33.468Z,103093.53
2023-01-22T05:17:01.468Z,103098.84
2023-01-22T05:19:28.128Z,103099.72
2023-01-22T05:21:55.137Z,103096.16
2023-01-22T05:24:21.764Z,103093.47
2023-01-22T05:26:48.462Z,103108.53
2023-01-22T05:29:26.099Z,103108.50
2023-01-22T05:31:59.025Z,103112.06
2023-01-22T05:34:40.470Z,103109.38
2023-01-22T05:37:09.593Z,103109.38
2023-01-22T05:39:36.241Z,103113.81
2023-01-22T05:42:05.113Z,103120.00
2023-01-22T05:44:33.577Z,103115.59
2023-01-22T05:47:01.357Z,103123.56
2023-01-22T05:49:46.558Z,103121.78
2023-01-22T05:52:14.976Z,103113.78
2023-01-22T05:54:41.519Z,103114.66
2023-01-22T05:57:08.382Z,103111.13
2023-01-22T05:59:37.652Z,103115.53
2023-01-22T06:02:06.138Z,103116.41
2023-01-22T06:04:35.481Z,103119.06
2023-01-22T06:07:08.973Z,103121.72
2023-01-22T06:09:35.705Z,103119.94
2023-01-22T06:12:04.399Z,103110.19
2023-01-22T06:14:31.302Z,103119.06
2023-01-22T06:16:59.519Z,103120.81
2023-01-22T06:19:34.258Z,103122.59
2023-01-22T06:22:00.981Z,103117.25
2023-01-22T06:24:40.496Z,103120.81
2023-01-22T06:27:08.393Z,103110.16
2023-01-22T06:29:40.638Z,103121.66
2023-01-22T06:32:07.526Z,103119.00
2023-01-22T06:34:34.222Z,103120.75
2023-01-22T06:37:02.698Z,103118.09
2023-01-22T06:39:32.665Z,103114.53
2023-01-22T06:42:09.242Z,103117.19
2023-01-22T06:44:35.867Z,103111.00
2023-01-22T06:47:02.728Z,103112.75
2023-01-22T06:49:30.791Z,103115.41
2023-01-22T06:51:57.391Z,103125.13
2023-01-22T06:54:24.012Z,103126.00
2023-01-22T06:56:50.694Z,103128.66
2023-01-22T06:59:20.285Z,103125.09
2023-01-22T07:01:46.858Z,103131.28
2023-01-22T07:04:13.443Z,103128.63
2023-01-22T07:06:40.106Z,103125.09
2023-01-22T07:09:06.662Z,103126.88
2023-01-22T07:11:33.321Z,103125.97
2023-01-22T07:13:59.798Z,103127.72
2023-01-22T07:16:26.406Z,103132.16
2023-01-22T07:18:53.016Z,103132.16
2023-01-22T07:21:19.613Z,103144.56
2023-01-22T07:23:46.183Z,103142.78
2023-01-22T07:26:12.841Z,103142.78
2023-01-22T07:28:39.382Z,103145.41
2023-01-22T07:31:10.227Z,103141.88
2023-01-22T07:33:36.920Z,103136.53
2023-01-22T07:36:04.079Z,103142.75
2023-01-22T07:38:30.723Z,103138.31
2023-01-22T07:41:13.937Z,103137.41
2023-01-22T07:43:49.172Z,103143.59
2023-01-22T07:46:16.334Z,103149.81
2023-01-22T07:48:44.957Z,103137.38
2023-01-22T07:51:12.715Z,103145.34
2023-01-22T07:53:40.006Z,103149.78
2023-01-22T07:56:06.930Z,103143.56
2023-01-22T07:58:33.460Z,103139.13
2023-01-22T08:01:00.153Z,103141.78
2023-01-22T08:03:26.733Z,103153.31
2023-01-22T08:05:53.235Z,103153.31
2023-01-22T08:08:20.568Z,103158.63
2023-01-22T08:10:47.722Z,103155.97
2023-01-22T08:13:14.669Z,103168.38
2023-01-22T08:15:45.772Z,103165.72
2023-01-22T08:18:12.319Z,103167.50
2023-01-22T08:20:38.933Z,103173.69
2023-01-22T08:23:05.543Z,103171.91
2023-01-22T08:25:32.126Z,103173.66
2023-01-22T08:28:02.779Z,103170.09
2023-01-22T08:30:29.332Z,103166.56
2023-01-22T08:32:55.814Z,103162.09
2023-01-22T08:35:24.439Z,103159.44
2023-01-22T08:37:51.178Z,103171.81
2023-01-22T08:40:18.528Z,103168.25
2023-01-22T08:42:53.201Z,103168.22
2023-01-22T08:45:20.502Z,103169.09
2023-01-22T08:47:47.967Z,103162.88
2023-01-22T08:50:14.988Z,103164.66
2023-01-22T08:52:41.509Z,103161.09
2023-01-22T08:55:10.186Z,103167.28
2023-01-22T08:57:37.295Z,103163.75
2023-01-22T09:00:05.548Z,103168.16
2023-01-22T09:02:32.418Z,103173.47
2023-01-22T09:04:58.943Z,103169.03
2023-01-22T09:07:25.606Z,103165.47
2023-01-22T09:09:52.145Z,103169.00
2023-01-22T09:12:18.646Z,103172.53
2023-01-22T09:14:45.160Z,103168.06
2023-01-22T09:17:11.733Z,103179.59
2023-01-22T09:19:38.207Z,103175.13
2023-01-22T09:22:06.637Z,103176.91
2023-01-22T09:24:33.597Z,103176.00
2023-01-22T09:27:00.363Z,103177.75
2023-01-22T09:29:26.907Z,103175.06
2023-01-22T09:31:53.873Z,103166.19
2023-01-22T09:34:20.439Z,103167.94
2023-01-22T09:36:47.003Z,103174.16
2023-01-22T09:39:13.483Z,103171.47
2023-01-22T09:41:48.922Z,103172.34
2023-01-22T09:44:37.603Z,103174.13
2023-01-22T09:47:16.314Z,103174.09
2023-01-22T09:50:05.022Z,103175.88
2023-01-22T09:52:34.616Z,103186.53
2023-01-22T09:55:01.333Z,103187.44
2023-01-22T09:57:32.357Z,103190.09
2023-01-22T09:59:59.413Z,103188.31
2023-01-22T10:02:38.999Z,103196.31
2023-01-22T10:05:27.711Z,103197.19
2023-01-22T10:08:00.678Z,103195.38
2023-01-22T10:10:29.069Z,103194.47
2023-01-22T10:13:01.053Z,103201.56
2023-01-22T10:15:27.867Z,103189.13
2023-01-22T10:17:55.863Z,103186.47
2023-01-22T10:20:24.675Z,103190.91
2023-01-22T10:22:55.285Z,103192.66
2023-01-22T10:25:22.183Z,103196.19
2023-01-22T10:27:57.713Z,103197.06
2023-01-22T10:30:26.061Z,103208.59
2023-01-22T10:33:04.895Z,103193.50
2023-01-22T10:35:32.548Z,103194.38
2023-01-22T10:38:00.029Z,103195.22
2023-01-22T10:40:33.928Z,103193.44
2023-01-22T10:43:14.859Z,103188.06
2023-01-22T10:46:06.029Z,103188.97
2023-01-22T10:48:33.458Z,103188.03
2023-01-22T10:51:14.066Z,103194.22
2023-01-22T10:53:48.367Z,103193.31
2023-01-22T10:56:27.520Z,103187.97
2023-01-22T10:58:55.329Z,103185.28
2023-01-22T11:01:36.327Z,103175.50
2023-01-22T11:04:26.201Z,103179.06
2023-01-22T11:07:14.277Z,103178.16
2023-01-22T11:09:43.113Z,103179.03
2023-01-22T11:12:29.729Z,103175.47
2023-01-22T11:15:12.927Z,103177.25
2023-01-22T11:17:45.183Z,103176.31
2023-01-22T11:20:28.318Z,103164.75
2023-01-22T11:23:18.079Z,103170.06
2023-01-22T11:26:03.221Z,103166.47
2023-01-22T11:28:51.023Z,103161.09
2023-01-22T11:31:33.001Z,103165.53
2023-01-22T11:34:11.366Z,103161.97
2023-01-22T11:36:49.078Z,103169.94
2023-01-22T11:39:21.329Z,103168.16
2023-01-22T11:42:16.460Z,103161.91
2023-01-22T11:44:55.792Z,103158.31
2023-01-22T11:47:48.318Z,103152.97
2023-01-22T11:50:24.561Z,103148.47
2023-01-22T11:53:09.601Z,103144.91
2023-01-22T11:56:02.252Z,103144.00
2023-01-22T11:58:53.605Z,103142.19
2023-01-22T12:01:57.122Z,103144.91
2023-01-22T12:04:40.306Z,103140.50
2023-01-22T12:07:28.116Z,103133.41
2023-01-22T12:10:28.732Z,103132.53
2023-01-22T12:12:58.377Z,103124.50
2023-01-22T12:15:32.415Z,103129.81
2023-01-22T12:18:08.103Z,103133.31
2023-01-22T12:21:02.593Z,103127.03
2023-01-22T12:23:36.098Z,103127.84
2023-01-22T12:26:23.942Z,103128.72
2023-01-22T12:29:02.549Z,103138.41
2023-01-22T12:31:32.217Z,103140.22
2023-01-22T12:34:02.241Z,103139.34
2023-01-22T12:36:30.161Z,103138.41
2023-01-22T12:39:02.651Z,103141.97
2023-01-22T12:41:54.043Z,103140.19
2023-01-22T12:44:28.407Z,103141.03
2023-01-22T12:47:36.299Z,103146.41
2023-01-22T12:50:04.799Z,103146.41
2023-01-22T12:52:37.384Z,103152.63
2023-01-22T12:55:44.358Z,103150.00
2023-01-22T12:58:38.386Z,103154.44
2023-01-22T13:01:11.379Z,103167.75
2023-01-22T13:03:40.423Z,103150.00
2023-01-22T13:06:29.559Z,103152.69
2023-01-22T13:08:56.129Z,103151.81
2023-01-22T13:11:30.589Z,103158.06
2023-01-22T13:14:14.801Z,103160.72
2023-01-22T13:16:51.706Z,103167.84
2023-01-22T13:19:27.983Z,103160.78
2023-01-22T13:21:58.804Z,103162.56
2023-01-22T13:24:25.780Z,103170.56
2023-01-22T13:26:59.957Z,103155.50
2023-01-22T13:29:33.221Z,103158.16
2023-01-22T13:32:16.985Z,103152.84
2023-01-22T13:34:43.618Z,103156.41
2023-01-22T13:37:24.522Z,103161.72
2023-01-22T13:39:51.200Z,103157.25
2023-01-22T13:42:18.110Z,103160.81
2023-01-22T13:44:51.365Z,103159.03
2023-01-22T13:47:36.186Z,103163.47
2023-01-22T13:50:03.565Z,103162.56
2023-01-22T13:52:31.549Z,103174.09
2023-01-22T13:55:03.191Z,103167.88
2023-01-22T13:57:29.724Z,103172.31
2023-01-22T13:59:58.852Z,103166.97
2023-01-22T14:02:31.844Z,103170.53
2023-01-22T14:04:59.185Z,103172.28
2023-01-22T14:07:30.065Z,103171.38
2023-01-22T14:09:58.865Z,103171.38
2023-01-22T14:12:27.272Z,103174.03
2023-01-22T14:14:54.899Z,103178.47
2023-01-22T14:17:36.487Z,103182.00
2023-01-22T14:20:04.412Z,103184.69
2023-01-22T14:22:31.054Z,103184.69
2023-01-22T14:24:57.612Z,103182.91
2023-01-22T14:27:28.783Z,103181.13
2023-01-22T14:29:55.606Z,103179.34
2023-01-22T14:32:23.716Z,103190.91
2023-01-22T14:34:50.196Z,103182.03
2023-01-22T14:37:18.884Z,103187.38
2023-01-22T14:39:45.538Z,103191.84
2023-01-22T14:42:12.202Z,103190.06
2023-01-22T14:44:38.775Z,103200.72
2023-01-22T14:47:05.337Z,103198.94
2023-01-22T14:49:32.761Z,103204.25
2023-01-22T14:51:59.365Z,103202.47
2023-01-22T14:54:25.862Z,103207.84
2023-01-22T14:56:52.487Z,103206.06
2023-01-22T14:59:20.740Z,103209.63
2023-01-22T15:01:47.517Z,103200.75
2023-01-22T15:04:14.133Z,103200.75
2023-01-22T15:06:46.589Z,103204.31
2023-01-22T15:09:13.238Z,103206.06
2023-01-22T15:11:39.738Z,103204.31
2023-01-22T15:14:06.783Z,103200.75
2023-01-22T15:16:33.457Z,103196.31
2023-01-22T15:19:00.037Z,103200.75
2023-01-22T15:21:26.582Z,103197.19
2023-01-22T15:23:53.182Z,103201.59
2023-01-22T15:26:27.625Z,103205.16
2023-01-22T15:28:55.256Z,103209.63
2023-01-22T15:31:21.870Z,103210.50
2023-01-22T15:33:49.244Z,103207.84
2023-01-22T15:36:15.740Z,103208.75
2023-01-22T15:38:42.358Z,103210.53
2023-01-22T15:41:26.992Z,103207.84
2023-01-22T15:43:56.309Z,103210.50
2023-01-22T15:46:27.978Z,103215.84
2023-01-22T15:48:54.617Z,103208.75
2023-01-22T15:51:21.565Z,103213.16
2023-01-22T15:53:50.332Z,103206.94
2023-01-22T15:56:17.971Z,103204.25
2023-01-22T15:58:44.790Z,103215.81
2023-01-22T16:01:11.722Z,103217.56
2023-01-22T16:03:38.462Z,103216.69
2023-01-22T16:06:12.277Z,103212.25
2023-01-22T16:08:40.053Z,103224.69
2023-01-22T16:11:06.916Z,103220.25
2023-01-22T16:13:33.894Z,103213.16
2023-01-22T16:16:06.293Z,103216.75
2023-01-22T16:18:34.346Z,103219.41
2023-01-22T16:21:02.315Z,103211.41
2023-01-22T16:23:30.445Z,103212.25
2023-01-22T16:25:57.506Z,103221.13
2023-01-22T16:28:24.346Z,103222.00
2023-01-22T16:30:51.016Z,103218.41
2023-01-22T16:33:21.902Z,103219.31
2023-01-22T16:36:13.285Z,103221.09
2023-01-22T16:38:40.650Z,103232.63
2023-01-22T16:41:24.560Z,103229.94
2023-01-22T16:43:57.640Z,103233.47
2023-01-22T16:46:28.620Z,103237.03
2023-01-22T16:49:03.633Z,103237.03
2023-01-22T16:51:36.272Z,103235.25
2023-01-22T16:54:03.253Z,103234.34
2023-01-22T16:56:30.186Z,103248.56
2023-01-22T16:58:56.783Z,103242.31
2023-01-22T17:01:23.458Z,103237.88
2023-01-22T17:03:53.986Z,103244.13
2023-01-22T17:06:23.597Z,103240.56
2023-01-22T17:08:51.531Z,103244.09
2023-01-22T17:11:18.360Z,103250.31
2023-01-22T17:13:45.175Z,103253.84
2023-01-22T17:16:12.337Z,103252.94
2023-01-22T17:18:39.030Z,103249.41
2023-01-22T17:21:07.806Z,103247.63
2023-01-22T17:23:34.835Z,103247.63
2023-01-22T17:26:11.500Z,103244.09
2023-01-22T17:28:39.548Z,103241.44
2023-01-22T17:31:08.258Z,103248.56
2023-01-22T17:33:35.911Z,103255.69
2023-01-22T17:36:04.005Z,103246.81
2023-01-22T17:38:33.002Z,103248.63
2023-01-22T17:41:26.294Z,103247.72
2023-01-22T17:43:55.549Z,103255.72
2023-01-22T17:46:25.262Z,103255.72
2023-01-22T17:48:52.431Z,103256.63
2023-01-22T17:51:21.798Z,103261.94
2023-01-22T17:53:49.895Z,103268.13
2023-01-22T17:56:20.053Z,103262.78
2023-01-22T17:58:50.410Z,103270.78
2023-01-22T18:01:19.596Z,103275.22
2023-01-22T18:03:47.502Z,103268.09
2023-01-22T18:06:14.485Z,103259.22
2023-01-22T18:08:42.326Z,103267.25
2023-01-22T18:11:14.848Z,103270.81
2023-01-22T18:13:42.221Z,103276.13
2023-01-22T18:16:12.353Z,103279.69
2023-01-22T18:18:39.285Z,103281.47
2023-01-22T18:21:07.726Z,103277.94
2023-01-22T18:23:34.337Z,103272.56
2023-01-22T18:26:05.176Z,103261.88
2023-01-22T18:28:32.467Z,103268.09
2023-01-22T18:31:15.169Z,103266.34
2023-01-22T18:33:44.402Z,103269.88
2023-01-22T18:36:14.353Z,103273.44
2023-01-22T18:38:41.382Z,103265.44
2023-01-22T18:41:10.509Z,103278.75
2023-01-22T18:43:38.298Z,103271.66
2023-01-22T18:46:06.915Z,103279.66
2023-01-22T18:48:33.551Z,103276.97
2023-01-22T18:51:00.121Z,103278.78
2023-01-22T18:53:26.761Z,103274.34
2023-01-22T18:55:53.641Z,103274.34
2023-01-22T18:58:34.175Z,103284.13
2023-01-22T19:01:13.177Z,103275.22
2023-01-22T19:03:41.508Z,103282.34
2023-01-22T19:06:13.971Z,103277.00
2023-01-22T19:08:42.839Z,103277.84
2023-01-22T19:11:10.302Z,103279.66
2023-01-22T19:13:36.846Z,103284.06
2023-01-22T19:16:09.003Z,103289.41
2023-01-22T19:18:35.732Z,103286.75
2023-01-22T19:21:07.360Z,103290.28
2023-01-22T19:23:36.198Z,103291.19
2023-01-22T19:26:12.312Z,103300.09
2023-01-22T19:28:39.416Z,103300.13
2023-01-22T19:31:24.892Z,103299.25
2023-01-22T19:33:53.136Z,103306.34
2023-01-22T19:36:21.378Z,103307.22
2023-01-22T19:38:48.332Z,103308.97
2023-01-22T19:41:15.022Z,103303.66
2023-01-22T19:43:42.109Z,103300.13
2023-01-22T19:46:12.188Z,103298.34
2023-01-22T19:48:39.489Z,103303.66
2023-01-22T19:51:12.333Z,103306.34
2023-01-22T19:53:39.742Z,103302.75
2023-01-22T19:56:15.970Z,103309.88
2023-01-22T19:58:42.566Z,103306.28
2023-01-22T20:01:10.689Z,103302.75
2023-01-22T20:03:37.307Z,103300.97
2023-01-22T20:06:08.781Z,103313.44
2023-01-22T20:08:36.393Z,103316.06
2023-01-22T20:11:04.385Z,103316.06
2023-01-22T20:13:31.278Z,103317.84
2023-01-22T20:15:59.325Z,103323.19
2023-01-22T20:18:25.909Z,103321.41
2023-01-22T20:20:56.369Z,103332.97
2023-01-22T20:23:23.799Z,103330.28
2023-01-22T20:25:50.826Z,103329.41
2023-01-22T20:28:18.442Z,103331.16
2023-01-22T20:30:46.086Z,103335.59
2023-01-22T20:33:12.679Z,103342.69
2023-01-22T20:35:42.363Z,103345.28
2023-01-22T20:38:09.470Z,103343.41
2023-01-22T20:40:39.036Z,103344.22
2023-01-22T20:43:06.067Z,103338.78
2023-01-22T20:45:33.089Z,103344.03
2023-01-22T20:47:59.697Z,103341.25
2023-01-22T20:50:26.240Z,103332.31
2023-01-22T20:52:55.865Z,103334.00
2023-01-22T20:55:24.653Z,103332.19
2023-01-22T20:57:51.154Z,103339.22
2023-01-22T21:00:18.179Z,103337.44
2023-01-22T21:02:44.714Z,103336.50
2023-01-22T21:05:11.259Z,103334.69
2023-01-22T21:07:37.766Z,103334.66
2023-01-22T21:10:04.737Z,103342.63
2023-01-22T21:12:31.286Z,103339.03
2023-01-22T21:14:57.842Z,103337.22
2023-01-22T21:17:24.352Z,103336.28
2023-01-22T21:19:51.659Z,103337.09
2023-01-22T21:22:18.466Z,103329.94
2023-01-22T21:24:45.211Z,103336.16
2023-01-22T21:27:12.923Z,103341.50
2023-01-22T21:29:39.535Z,103338.78
2023-01-22T21:32:06.064Z,103337.03
2023-01-22T21:34:33.419Z,103343.28
2023-01-22T21:36:59.972Z,103345.94
2023-01-22T21:39:29.015Z,103347.72
2023-01-22T21:42:16.647Z,103348.56
2023-01-22T21:45:02.599Z,103340.53
2023-01-22T21:47:29.644Z,103342.28
2023-01-22T21:49:56.607Z,103339.66
2023-01-22T21:52:24.283Z,103334.34
2023-01-22T21:54:50.908Z,103342.38
2023-01-22T21:57:17.534Z,103349.53
2023-01-22T21:59:45.648Z,103346.84
2023-01-22T22:02:15.584Z,103332.63
2023-01-22T22:04:42.469Z,103334.38
2023-01-22T22:07:09.033Z,103339.72
2023-01-22T22:09:35.660Z,103335.31
2023-01-22T22:12:03.073Z,103338.88
2023-01-22T22:14:30.319Z,103345.13
2023-01-22T22:17:00.662Z,103354.03
2023-01-22T22:19:28.836Z,103354.91
2023-01-22T22:21:55.454Z,103356.72
2023-01-22T22:24:22.147Z,103357.63
2023-01-22T22:26:48.671Z,103359.44
2023-01-22T22:29:15.346Z,103354.97
2023-01-22T22:31:41.862Z,103345.19
2023-01-22T22:34:08.356Z,103354.13
2023-01-22T22:36:35.018Z,103355.94
2023-01-22T22:39:02.087Z,103359.53
2023-01-22T22:41:32.763Z,103356.84
2023-01-22T22:43:59.469Z,103366.66
2023-01-22T22:46:30.033Z,103358.66
2023-01-22T22:48:58.420Z,103369.38
2023-01-22T22:51:29.353Z,103368.47
2023-01-22T22:53:59.044Z,103363.19
2023-01-22T22:56:27.146Z,103367.66
2023-01-22T22:58:53.922Z,103374.78
2023-01-22T23:01:23.700Z,103366.78
2023-01-22T23:03:51.234Z,103370.34
2023-01-22T23:06:21.306Z,103381.94
2023-01-22T23:08:52.256Z,103382.84
2023-01-22T23:11:32.279Z,103379.31
2023-01-22T23:14:02.494Z,103373.09
2023-01-22T23:16:31.722Z,103379.31
2023-01-22T23:19:00.108Z,103380.22
2023-01-22T23:21:28.627Z,103381.13
2023-01-22T23:23:55.802Z,103376.69
2023-01-22T23:26:28.250Z,103372.22
2023-01-22T23:28:57.833Z,103371.31
2023-01-22T23:31:25.883Z,103376.66
2023-01-22T23:33:54.035Z,103374.88
2023-01-22T23:36:20.657Z,103373.13
2023-01-22T23:38:47.199Z,103370.47
2023-01-22T23:41:15.552Z,103368.66
2023-01-22T23:43:43.145Z,103375.75
2023-01-22T23:46:14.945Z,103379.31
2023-01-22T23:48:42.166Z,103378.41
2023-01-22T23:51:10.470Z,103376.63
2023-01-22T23:53:41.478Z,103376.59
2023-01-22T23:56:09.673Z,103367.69
2023-01-22T23:58:36.318Z,103371.28
